Current Weather

Comanche County-City

Comanche, Texas (KMKN)

Report from: Sunday, June 26, 2022 5:26 PM UTC
Current time: Sunday, June 26, 2022 5:55 PM UTC

Nearby weather
Weather history
Weather forecast

Temperature36.0°C (96.8°F)
Heat index35.1°C (95.2°F)
Dew point13.0°C (55.4°F)
Winds Calm
Clouds Sky clear
Altimeter30.16 in.Hg (1021 mB)
Relative humidity25 %
Density altitude2,320 ft. (707 m)
Remarks Fully automated report
Automated weather observing station with precipitation discriminator
Present weather sensor not operating
Flight conditions Visual Meteorological Conditions
Raw dataKMKN 261726Z AUTO 00000KT CLR 36/13 A3016 RMK AO2 PWINO
An error has occurred. This application may no longer respond until reloaded. Reload 🗙